sensor_id;sensor_type;location;lat;lon;timestamp;temperature;humidity
54516;DHT22;40422;45.892;4.738;2023-10-31T04:01:44;10.60;99.90
54516;DHT22;40422;45.892;4.738;2023-10-31T04:04:09;10.60;99.90
54516;DHT22;40422;45.892;4.738;2023-10-31T04:06:35;10.60;99.90
54516;DHT22;40422;45.892;4.738;2023-10-31T04:09:05;10.50;99.90
54516;DHT22;40422;45.892;4.738;2023-10-31T04:11:31;10.60;99.90
54516;DHT22;40422;45.892;4.738;2023-10-31T04:13:56;10.50;99.90
54516;DHT22;40422;45.892;4.738;2023-10-31T04:16:22;10.50;99.90
54516;DHT22;40422;45.892;4.738;2023-10-31T04:18:48;10.50;99.90
54516;DHT22;40422;45.892;4.738;2023-10-31T04:21:14;10.40;99.90
54516;DHT22;40422;45.892;4.738;2023-10-31T04:23:39;10.40;99.90
54516;DHT22;40422;45.892;4.738;2023-10-31T04:26:05;10.40;99.90
54516;DHT22;40422;45.892;4.738;2023-10-31T04:28:31;10.30;99.90
54516;DHT22;40422;45.892;4.738;2023-10-31T04:30:56;10.40;99.90
54516;DHT22;40422;45.892;4.738;2023-10-31T04:33:22;10.30;99.90
54516;DHT22;40422;45.892;4.738;2023-10-31T04:35:47;10.30;99.90
54516;DHT22;40422;45.892;4.738;2023-10-31T04:38:14;10.20;99.90
54516;DHT22;40422;45.892;4.738;2023-10-31T04:40:39;10.20;99.90
54516;DHT22;40422;45.892;4.738;2023-10-31T04:43:05;10.20;99.90
54516;DHT22;40422;45.892;4.738;2023-10-31T04:45:30;10.10;99.90
54516;DHT22;40422;45.892;4.738;2023-10-31T04:47:56;10.10;99.90
54516;DHT22;40422;45.892;4.738;2023-10-31T04:50:22;10.20;99.90
54516;DHT22;40422;45.892;4.738;2023-10-31T04:52:47;10.20;99.90
54516;DHT22;40422;45.892;4.738;2023-10-31T04:55:13;10.20;99.90
54516;DHT22;40422;45.892;4.738;2023-10-31T04:57:39;10.20;99.90
54516;DHT22;40422;45.892;4.738;2023-10-31T05:00:05;10.20;99.90
54516;DHT22;40422;45.892;4.738;2023-10-31T05:02:33;10.10;99.90
54516;DHT22;40422;45.892;4.738;2023-10-31T05:04:59;10.20;99.90
54516;DHT22;40422;45.892;4.738;2023-10-31T05:07:24;10.20;99.90
54516;DHT22;40422;45.892;4.738;2023-10-31T05:09:50;10.20;99.90
54516;DHT22;40422;45.892;4.738;2023-10-31T05:12:16;10.20;99.90
54516;DHT22;40422;45.892;4.738;2023-10-31T05:14:41;10.20;99.90
54516;DHT22;40422;45.892;4.738;2023-10-31T05:17:07;10.20;99.90
54516;DHT22;40422;45.892;4.738;2023-10-31T05:19:32;10.20;99.90
54516;DHT22;40422;45.892;4.738;2023-10-31T05:21:58;10.20;99.90
54516;DHT22;40422;45.892;4.738;2023-10-31T05:24:24;10.20;99.90
54516;DHT22;40422;45.892;4.738;2023-10-31T05:26:49;10.20;99.90
54516;DHT22;40422;45.892;4.738;2023-10-31T05:29:15;10.20;99.90
54516;DHT22;40422;45.892;4.738;2023-10-31T05:31:40;10.20;99.90
54516;DHT22;40422;45.892;4.738;2023-10-31T05:34:07;10.10;99.90
54516;DHT22;40422;45.892;4.738;2023-10-31T05:36:33;10.20;99.90
54516;DHT22;40422;45.892;4.738;2023-10-31T05:38:58;10.10;99.90
54516;DHT22;40422;45.892;4.738;2023-10-31T05:41:24;10.10;99.90
54516;DHT22;40422;45.892;4.738;2023-10-31T05:43:49;10.10;99.90
54516;DHT22;40422;45.892;4.738;2023-10-31T05:46:15;10.00;99.90
54516;DHT22;40422;45.892;4.738;2023-10-31T05:48:43;9.90;99.90
54516;DHT22;40422;45.892;4.738;2023-10-31T05:51:16;9.90;99.90
54516;DHT22;40422;45.892;4.738;2023-10-31T05:53:44;9.90;99.90
54516;DHT22;40422;45.892;4.738;2023-10-31T05:56:11;9.80;99.90
54516;DHT22;40422;45.892;4.738;2023-10-31T05:58:38;9.80;99.90
54516;DHT22;40422;45.892;4.738;2023-10-31T06:01:04;9.80;99.90
54516;DHT22;40422;45.892;4.738;2023-10-31T06:03:30;9.80;99.90
54516;DHT22;40422;45.892;4.738;2023-10-31T06:05:55;9.80;99.90
54516;DHT22;40422;45.892;4.738;2023-10-31T06:08:21;9.80;99.90
54516;DHT22;40422;45.892;4.738;2023-10-31T06:10:46;9.80;99.90
54516;DHT22;40422;45.892;4.738;2023-10-31T06:13:12;9.80;99.90
54516;DHT22;40422;45.892;4.738;2023-10-31T06:15:38;9.80;99.90
54516;DHT22;40422;45.892;4.738;2023-10-31T06:18:03;9.70;99.90
54516;DHT22;40422;45.892;4.738;2023-10-31T06:20:29;9.70;99.90
54516;DHT22;40422;45.892;4.738;2023-10-31T06:22:54;9.70;99.90
54516;DHT22;40422;45.892;4.738;2023-10-31T06:25:20;9.60;99.90
54516;DHT22;40422;45.892;4.738;2023-10-31T06:27:46;9.60;99.90
54516;DHT22;40422;45.892;4.738;2023-10-31T06:30:12;9.60;99.90
54516;DHT22;40422;45.892;4.738;2023-10-31T06:32:38;9.60;99.90
54516;DHT22;40422;45.892;4.738;2023-10-31T06:35:06;9.60;99.90
54516;DHT22;40422;45.892;4.738;2023-10-31T06:37:33;9.60;99.90
54516;DHT22;40422;45.892;4.738;2023-10-31T06:39:58;9.60;99.90
54516;DHT22;40422;45.892;4.738;2023-10-31T06:42:24;9.70;99.90
54516;DHT22;40422;45.892;4.738;2023-10-31T06:44:50;9.70;99.90
54516;DHT22;40422;45.892;4.738;2023-10-31T06:47:15;9.70;99.90
54516;DHT22;40422;45.892;4.738;2023-10-31T06:49:41;9.80;99.90
54516;DHT22;40422;45.892;4.738;2023-10-31T06:52:06;9.80;99.90
54516;DHT22;40422;45.892;4.738;2023-10-31T06:54:32;9.90;99.90
54516;DHT22;40422;45.892;4.738;2023-10-31T06:56:58;9.90;99.90
54516;DHT22;40422;45.892;4.738;2023-10-31T06:59:23;10.00;99.90
54516;DHT22;40422;45.892;4.738;2023-10-31T07:01:49;10.10;99.90
54516;DHT22;40422;45.892;4.738;2023-10-31T07:04:15;10.10;99.90
54516;DHT22;40422;45.892;4.738;2023-10-31T07:06:42;10.30;99.90
54516;DHT22;40422;45.892;4.738;2023-10-31T07:09:08;10.30;99.90
54516;DHT22;40422;45.892;4.738;2023-10-31T07:11:35;10.40;99.90
54516;DHT22;40422;45.892;4.738;2023-10-31T07:14:01;10.50;99.90
54516;DHT22;40422;45.892;4.738;2023-10-31T07:16:32;10.50;99.90
54516;DHT22;40422;45.892;4.738;2023-10-31T07:18:57;10.60;99.90
54516;DHT22;40422;45.892;4.738;2023-10-31T07:21:23;10.70;99.90
54516;DHT22;40422;45.892;4.738;2023-10-31T07:23:49;10.80;99.90
54516;DHT22;40422;45.892;4.738;2023-10-31T07:26:14;10.90;99.90
54516;DHT22;40422;45.892;4.738;2023-10-31T07:28:41;10.90;99.90
54516;DHT22;40422;45.892;4.738;2023-10-31T07:31:06;11.00;99.90
54516;DHT22;40422;45.892;4.738;2023-10-31T07:33:32;11.00;99.90
54516;DHT22;40422;45.892;4.738;2023-10-31T07:35:58;11.10;99.90
54516;DHT22;40422;45.892;4.738;2023-10-31T07:38:23;11.30;99.90
54516;DHT22;40422;45.892;4.738;2023-10-31T07:40:49;11.50;99.90
54516;DHT22;40422;45.892;4.738;2023-10-31T07:43:15;11.70;99.90
54516;DHT22;40422;45.892;4.738;2023-10-31T07:45:41;11.80;99.90
54516;DHT22;40422;45.892;4.738;2023-10-31T07:48:08;11.90;99.90
54516;DHT22;40422;45.892;4.738;2023-10-31T07:50:34;12.00;99.90
54516;DHT22;40422;45.892;4.738;2023-10-31T07:52:59;12.00;99.90
54516;DHT22;40422;45.892;4.738;2023-10-31T07:55:25;12.00;99.90
54516;DHT22;40422;45.892;4.738;2023-10-31T07:57:51;12.10;99.90
54516;DHT22;40422;45.892;4.738;2023-10-31T08:00:16;12.20;99.90
54516;DHT22;40422;45.892;4.738;2023-10-31T08:02:42;12.30;99.90
54516;DHT22;40422;45.892;4.738;2023-10-31T08:05:08;12.50;99.90
54516;DHT22;40422;45.892;4.738;2023-10-31T08:07:34;12.60;99.90
54516;DHT22;40422;45.892;4.738;2023-10-31T08:09:59;12.70;99.90
54516;DHT22;40422;45.892;4.738;2023-10-31T08:12:25;12.80;99.90
54516;DHT22;40422;45.892;4.738;2023-10-31T08:14:50;12.90;99.90
54516;DHT22;40422;45.892;4.738;2023-10-31T08:17:16;12.90;99.90
54516;DHT22;40422;45.892;4.738;2023-10-31T08:19:42;13.00;99.90
54516;DHT22;40422;45.892;4.738;2023-10-31T08:22:07;13.00;99.90
54516;DHT22;40422;45.892;4.738;2023-10-31T08:24:33;13.10;99.90
54516;DHT22;40422;45.892;4.738;2023-10-31T08:27:01;13.20;99.90
54516;DHT22;40422;45.892;4.738;2023-10-31T08:29:27;13.30;99.90
54516;DHT22;40422;45.892;4.738;2023-10-31T08:31:53;13.50;99.90
54516;DHT22;40422;45.892;4.738;2023-10-31T08:34:18;13.60;99.90
54516;DHT22;40422;45.892;4.738;2023-10-31T08:36:44;13.70;99.90
54516;DHT22;40422;45.892;4.738;2023-10-31T08:39:09;13.90;99.90
54516;DHT22;40422;45.892;4.738;2023-10-31T08:41:35;14.00;99.90
54516;DHT22;40422;45.892;4.738;2023-10-31T08:44:02;13.90;99.90
54516;DHT22;40422;45.892;4.738;2023-10-31T08:46:28;13.90;99.90
54516;DHT22;40422;45.892;4.738;2023-10-31T08:48:54;13.90;99.90
54516;DHT22;40422;45.892;4.738;2023-10-31T08:51:20;14.10;99.90
54516;DHT22;40422;45.892;4.738;2023-10-31T08:53:45;14.30;99.90
54516;DHT22;40422;45.892;4.738;2023-10-31T08:56:11;14.30;99.90
54516;DHT22;40422;45.892;4.738;2023-10-31T08:58:36;14.30;99.90
54516;DHT22;40422;45.892;4.738;2023-10-31T09:01:02;14.20;99.90
54516;DHT22;40422;45.892;4.738;2023-10-31T09:03:28;14.20;99.90
54516;DHT22;40422;45.892;4.738;2023-10-31T09:05:53;14.10;99.90
54516;DHT22;40422;45.892;4.738;2023-10-31T09:08:19;14.10;99.90
54516;DHT22;40422;45.892;4.738;2023-10-31T09:10:45;14.00;99.90
54516;DHT22;40422;45.892;4.738;2023-10-31T09:13:12;14.00;99.90
54516;DHT22;40422;45.892;4.738;2023-10-31T09:15:37;13.90;99.90
54516;DHT22;40422;45.892;4.738;2023-10-31T09:18:04;13.90;99.90
54516;DHT22;40422;45.892;4.738;2023-10-31T09:20:29;14.00;99.90
54516;DHT22;40422;45.892;4.738;2023-10-31T09:22:55;14.20;99.90
54516;DHT22;40422;45.892;4.738;2023-10-31T09:25:21;14.30;99.90
54516;DHT22;40422;45.892;4.738;2023-10-31T09:27:47;14.40;99.90
54516;DHT22;40422;45.892;4.738;2023-10-31T09:30:12;14.60;99.90
54516;DHT22;40422;45.892;4.738;2023-10-31T09:32:38;14.70;99.90
54516;DHT22;40422;45.892;4.738;2023-10-31T09:35:04;14.80;99.90
54516;DHT22;40422;45.892;4.738;2023-10-31T09:37:30;14.80;99.90
54516;DHT22;40422;45.892;4.738;2023-10-31T09:39:55;14.80;99.90
54516;DHT22;40422;45.892;4.738;2023-10-31T09:42:21;14.80;99.90
54516;DHT22;40422;45.892;4.738;2023-10-31T09:44:46;14.80;99.90
54516;DHT22;40422;45.892;4.738;2023-10-31T09:47:12;14.80;99.90
54516;DHT22;40422;45.892;4.738;2023-10-31T09:49:38;14.80;99.90
54516;DHT22;40422;45.892;4.738;2023-10-31T09:52:04;14.90;99.90
54516;DHT22;40422;45.892;4.738;2023-10-31T09:54:29;14.90;99.90
54516;DHT22;40422;45.892;4.738;2023-10-31T09:56:55;14.90;99.90
54516;DHT22;40422;45.892;4.738;2023-10-31T09:59:21;14.90;99.90
54516;DHT22;40422;45.892;4.738;2023-10-31T10:01:46;14.90;99.90
54516;DHT22;40422;45.892;4.738;2023-10-31T10:04:12;14.90;99.90
54516;DHT22;40422;45.892;4.738;2023-10-31T10:07:01;14.90;99.90
54516;DHT22;40422;45.892;4.738;2023-10-31T10:09:27;14.90;99.90
54516;DHT22;40422;45.892;4.738;2023-10-31T10:11:53;15.00;99.90
54516;DHT22;40422;45.892;4.738;2023-10-31T10:14:22;15.00;99.90
54516;DHT22;40422;45.892;4.738;2023-10-31T10:16:48;15.10;99.90
54516;DHT22;40422;45.892;4.738;2023-10-31T10:19:21;15.10;99.90
54516;DHT22;40422;45.892;4.738;2023-10-31T10:21:54;15.10;99.90
54516;DHT22;40422;45.892;4.738;2023-10-31T10:24:21;15.20;99.90
54516;DHT22;40422;45.892;4.738;2023-10-31T10:26:47;15.10;99.90
54516;DHT22;40422;45.892;4.738;2023-10-31T10:29:13;15.20;99.90
54516;DHT22;40422;45.892;4.738;2023-10-31T10:31:42;15.20;99.90
54516;DHT22;40422;45.892;4.738;2023-10-31T10:34:08;15.20;99.90
54516;DHT22;40422;45.892;4.738;2023-10-31T10:36:34;15.20;99.90
54516;DHT22;40422;45.892;4.738;2023-10-31T10:39:00;15.20;99.90
54516;DHT22;40422;45.892;4.738;2023-10-31T10:41:27;15.20;99.90
54516;DHT22;40422;45.892;4.738;2023-10-31T10:43:56;15.20;99.90
54516;DHT22;40422;45.892;4.738;2023-10-31T10:46:25;15.20;99.90
54516;DHT22;40422;45.892;4.738;2023-10-31T10:48:55;15.20;99.90
54516;DHT22;40422;45.892;4.738;2023-10-31T10:51:29;15.30;99.90
54516;DHT22;40422;45.892;4.738;2023-10-31T10:54:10;15.50;99.90
54516;DHT22;40422;45.892;4.738;2023-10-31T10:56:46;15.60;99.90
54516;DHT22;40422;45.892;4.738;2023-10-31T10:59:20;15.70;99.90
54516;DHT22;40422;45.892;4.738;2023-10-31T11:01:49;15.80;99.90
54516;DHT22;40422;45.892;4.738;2023-10-31T11:04:15;15.90;99.90
54516;DHT22;40422;45.892;4.738;2023-10-31T11:06:42;15.90;99.90
54516;DHT22;40422;45.892;4.738;2023-10-31T11:09:10;15.90;99.90
54516;DHT22;40422;45.892;4.738;2023-10-31T11:11:40;15.90;99.90
54516;DHT22;40422;45.892;4.738;2023-10-31T11:14:06;16.00;99.90
54516;DHT22;40422;45.892;4.738;2023-10-31T11:16:49;16.10;99.90
54516;DHT22;40422;45.892;4.738;2023-10-31T11:19:17;16.20;99.90
54516;DHT22;40422;45.892;4.738;2023-10-31T11:21:58;16.20;99.90
54516;DHT22;40422;45.892;4.738;2023-10-31T11:24:33;16.20;99.90
54516;DHT22;40422;45.892;4.738;2023-10-31T11:27:02;16.20;99.90
54516;DHT22;40422;45.892;4.738;2023-10-31T11:29:30;16.30;99.90
54516;DHT22;40422;45.892;4.738;2023-10-31T11:31:55;16.30;99.90
54516;DHT22;40422;45.892;4.738;2023-10-31T11:34:28;16.40;99.90
54516;DHT22;40422;45.892;4.738;2023-10-31T11:36:53;16.40;99.90
54516;DHT22;40422;45.892;4.738;2023-10-31T11:39:21;16.40;99.90
54516;DHT22;40422;45.892;4.738;2023-10-31T11:41:54;16.40;99.90
54516;DHT22;40422;45.892;4.738;2023-10-31T11:44:22;16.30;99.90
54516;DHT22;40422;45.892;4.738;2023-10-31T11:46:50;16.40;99.90
54516;DHT22;40422;45.892;4.738;2023-10-31T11:49:46;16.50;99.90
54516;DHT22;40422;45.892;4.738;2023-10-31T11:52:18;16.50;99.90
54516;DHT22;40422;45.892;4.738;2023-10-31T11:54:44;16.60;99.90
54516;DHT22;40422;45.892;4.738;2023-10-31T11:57:10;16.60;99.90
54516;DHT22;40422;45.892;4.738;2023-10-31T11:59:39;16.40;99.90
54516;DHT22;40422;45.892;4.738;2023-10-31T12:02:14;16.20;99.90
54516;DHT22;40422;45.892;4.738;2023-10-31T12:04:40;16.00;99.90
54516;DHT22;40422;45.892;4.738;2023-10-31T12:07:06;15.90;99.90
54516;DHT22;40422;45.892;4.738;2023-10-31T12:09:31;15.90;99.90
54516;DHT22;40422;45.892;4.738;2023-10-31T12:11:57;15.80;99.90
54516;DHT22;40422;45.892;4.738;2023-10-31T12:14:24;15.90;99.90
54516;DHT22;40422;45.892;4.738;2023-10-31T12:16:50;15.90;99.90
54516;DHT22;40422;45.892;4.738;2023-10-31T12:19:15;15.90;99.90
54516;DHT22;40422;45.892;4.738;2023-10-31T12:21:45;15.90;99.90
54516;DHT22;40422;45.892;4.738;2023-10-31T12:24:16;15.90;99.90
54516;DHT22;40422;45.892;4.738;2023-10-31T12:26:43;15.90;99.90
54516;DHT22;40422;45.892;4.738;2023-10-31T12:29:11;16.10;99.90
54516;DHT22;40422;45.892;4.738;2023-10-31T12:31:51;16.30;99.90
54516;DHT22;40422;45.892;4.738;2023-10-31T12:34:25;16.60;99.90
54516;DHT22;40422;45.892;4.738;2023-10-31T12:36:51;17.00;99.90
54516;DHT22;40422;45.892;4.738;2023-10-31T12:39:21;17.20;99.90
54516;DHT22;40422;45.892;4.738;2023-10-31T12:41:47;17.30;99.90
54516;DHT22;40422;45.892;4.738;2023-10-31T12:44:17;17.50;99.90
54516;DHT22;40422;45.892;4.738;2023-10-31T12:46:44;17.50;99.90
54516;DHT22;40422;45.892;4.738;2023-10-31T12:49:17;17.60;99.90
54516;DHT22;40422;45.892;4.738;2023-10-31T12:52:01;17.60;99.90
54516;DHT22;40422;45.892;4.738;2023-10-31T12:57:00;17.40;99.90
54516;DHT22;40422;45.892;4.738;2023-10-31T12:59:26;17.20;99.90
54516;DHT22;40422;45.892;4.738;2023-10-31T13:01:55;17.10;99.90
54516;DHT22;40422;45.892;4.738;2023-10-31T13:04:27;17.10;99.90
54516;DHT22;40422;45.892;4.738;2023-10-31T13:09:21;17.60;99.90
54516;DHT22;40422;45.892;4.738;2023-10-31T13:11:47;17.80;99.90
54516;DHT22;40422;45.892;4.738;2023-10-31T13:14:13;18.00;99.90
54516;DHT22;40422;45.892;4.738;2023-10-31T13:16:39;18.10;99.90
54516;DHT22;40422;45.892;4.738;2023-10-31T13:19:04;18.20;99.90
54516;DHT22;40422;45.892;4.738;2023-10-31T13:21:30;18.30;99.90
54516;DHT22;40422;45.892;4.738;2023-10-31T13:23:55;18.40;99.90
54516;DHT22;40422;45.892;4.738;2023-10-31T13:26:21;18.60;99.90
54516;DHT22;40422;45.892;4.738;2023-10-31T13:28:46;18.90;99.90
54516;DHT22;40422;45.892;4.738;2023-10-31T13:31:12;19.10;99.90
54516;DHT22;40422;45.892;4.738;2023-10-31T13:33:39;19.20;99.90
54516;DHT22;40422;45.892;4.738;2023-10-31T13:36:05;19.30;99.90
54516;DHT22;40422;45.892;4.738;2023-10-31T13:38:31;19.50;99.90
54516;DHT22;40422;45.892;4.738;2023-10-31T13:40:56;19.70;99.90
54516;DHT22;40422;45.892;4.738;2023-10-31T13:43:22;19.80;99.90
54516;DHT22;40422;45.892;4.738;2023-10-31T13:45:47;19.70;99.20
54516;DHT22;40422;45.892;4.738;2023-10-31T13:48:13;19.70;99.50
54516;DHT22;40422;45.892;4.738;2023-10-31T13:50:40;19.80;99.70
54516;DHT22;40422;45.892;4.738;2023-10-31T13:53:06;19.70;98.80
54516;DHT22;40422;45.892;4.738;2023-10-31T13:55:33;19.80;97.70
54516;DHT22;40422;45.892;4.738;2023-10-31T13:57:58;19.80;97.90
54516;DHT22;40422;45.892;4.738;2023-10-31T14:00:25;20.00;97.70
54516;DHT22;40422;45.892;4.738;2023-10-31T14:02:51;20.10;97.20
54516;DHT22;40422;45.892;4.738;2023-10-31T14:05:16;20.20;97.60
54516;DHT22;40422;45.892;4.738;2023-10-31T14:07:42;20.10;97.10
54516;DHT22;40422;45.892;4.738;2023-10-31T14:10:08;19.80;97.40
54516;DHT22;40422;45.892;4.738;2023-10-31T14:12:34;19.40;97.30
54516;DHT22;40422;45.892;4.738;2023-10-31T14:14:59;19.10;97.10
54516;DHT22;40422;45.892;4.738;2023-10-31T14:17:25;19.10;97.10
54516;DHT22;40422;45.892;4.738;2023-10-31T14:19:51;19.10;97.40
54516;DHT22;40422;45.892;4.738;2023-10-31T14:22:17;19.20;96.80
54516;DHT22;40422;45.892;4.738;2023-10-31T14:24:42;19.40;95.90
54516;DHT22;40422;45.892;4.738;2023-10-31T14:27:08;19.20;95.80
54516;DHT22;40422;45.892;4.738;2023-10-31T14:29:34;19.30;96.40
54516;DHT22;40422;45.892;4.738;2023-10-31T14:32:09;19.30;95.00
54516;DHT22;40422;45.892;4.738;2023-10-31T14:34:35;19.20;96.10
54516;DHT22;40422;45.892;4.738;2023-10-31T14:37:01;19.30;95.80
54516;DHT22;40422;45.892;4.738;2023-10-31T14:39:26;19.30;94.50
54516;DHT22;40422;45.892;4.738;2023-10-31T14:41:52;19.40;95.50
54516;DHT22;40422;45.892;4.738;2023-10-31T14:44:18;19.40;94.40
54516;DHT22;40422;45.892;4.738;2023-10-31T14:46:44;19.40;94.80
54516;DHT22;40422;45.892;4.738;2023-10-31T14:49:09;19.40;95.00
54516;DHT22;40422;45.892;4.738;2023-10-31T14:51:35;19.40;94.40
54516;DHT22;40422;45.892;4.738;2023-10-31T14:54:01;19.30;94.10
54516;DHT22;40422;45.892;4.738;2023-10-31T14:56:27;19.30;94.20
54516;DHT22;40422;45.892;4.738;2023-10-31T14:58:55;19.30;94.10
54516;DHT22;40422;45.892;4.738;2023-10-31T15:01:20;19.20;94.60
54516;DHT22;40422;45.892;4.738;2023-10-31T15:03:47;19.30;95.10
54516;DHT22;40422;45.892;4.738;2023-10-31T15:06:12;19.30;94.60
54516;DHT22;40422;45.892;4.738;2023-10-31T15:08:38;19.40;95.10
54516;DHT22;40422;45.892;4.738;2023-10-31T15:11:04;19.50;94.80
54516;DHT22;40422;45.892;4.738;2023-10-31T15:13:29;19.70;94.80
54516;DHT22;40422;45.892;4.738;2023-10-31T15:15:56;19.80;95.50
54516;DHT22;40422;45.892;4.738;2023-10-31T15:18:22;19.80;93.90
54516;DHT22;40422;45.892;4.738;2023-10-31T15:20:47;19.70;94.30
54516;DHT22;40422;45.892;4.738;2023-10-31T15:23:13;19.50;94.30
54516;DHT22;40422;45.892;4.738;2023-10-31T15:25:40;19.60;95.40
54516;DHT22;40422;45.892;4.738;2023-10-31T15:28:05;19.70;95.10
54516;DHT22;40422;45.892;4.738;2023-10-31T15:30:32;19.80;94.60
54516;DHT22;40422;45.892;4.738;2023-10-31T15:32:58;19.80;94.60
54516;DHT22;40422;45.892;4.738;2023-10-31T15:35:24;19.70;95.10
54516;DHT22;40422;45.892;4.738;2023-10-31T15:37:50;19.40;95.40
54516;DHT22;40422;45.892;4.738;2023-10-31T15:40:15;19.30;95.60
54516;DHT22;40422;45.892;4.738;2023-10-31T15:42:41;19.20;96.20
54516;DHT22;40422;45.892;4.738;2023-10-31T15:45:07;19.00;96.60
54516;DHT22;40422;45.892;4.738;2023-10-31T15:47:33;18.90;96.90
54516;DHT22;40422;45.892;4.738;2023-10-31T15:49:58;18.80;97.30
54516;DHT22;40422;45.892;4.738;2023-10-31T15:52:24;18.60;98.20
54516;DHT22;40422;45.892;4.738;2023-10-31T15:54:49;18.40;98.90
54516;DHT22;40422;45.892;4.738;2023-10-31T15:57:15;18.20;99.90
54516;DHT22;40422;45.892;4.738;2023-10-31T15:59:46;18.00;99.90
54516;DHT22;40422;45.892;4.738;2023-10-31T16:02:11;17.90;99.90
54516;DHT22;40422;45.892;4.738;2023-10-31T16:04:37;17.70;99.90
54516;DHT22;40422;45.892;4.738;2023-10-31T16:07:04;17.50;99.90
54516;DHT22;40422;45.892;4.738;2023-10-31T16:09:32;17.40;99.90
54516;DHT22;40422;45.892;4.738;2023-10-31T16:11:57;17.20;99.90
54516;DHT22;40422;45.892;4.738;2023-10-31T16:14:23;17.00;99.90
54516;DHT22;40422;45.892;4.738;2023-10-31T16:16:50;16.90;99.90
54516;DHT22;40422;45.892;4.738;2023-10-31T16:19:16;16.70;99.90
54516;DHT22;40422;45.892;4.738;2023-10-31T16:21:41;16.50;99.90
54516;DHT22;40422;45.892;4.738;2023-10-31T16:24:07;16.30;99.90
54516;DHT22;40422;45.892;4.738;2023-10-31T16:26:33;16.10;99.90
54516;DHT22;40422;45.892;4.738;2023-10-31T16:28:58;15.90;99.90
54516;DHT22;40422;45.892;4.738;2023-10-31T16:31:26;15.80;99.90
54516;DHT22;40422;45.892;4.738;2023-10-31T16:33:51;15.60;99.90
54516;DHT22;40422;45.892;4.738;2023-10-31T16:36:17;15.40;99.90
54516;DHT22;40422;45.892;4.738;2023-10-31T16:38:43;15.30;99.90
54516;DHT22;40422;45.892;4.738;2023-10-31T16:41:09;15.20;99.90
54516;DHT22;40422;45.892;4.738;2023-10-31T16:43:35;15.00;99.90
54516;DHT22;40422;45.892;4.738;2023-10-31T16:46:01;14.90;99.90
54516;DHT22;40422;45.892;4.738;2023-10-31T16:48:26;14.80;99.90
54516;DHT22;40422;45.892;4.738;2023-10-31T16:50:52;14.70;99.90
54516;DHT22;40422;45.892;4.738;2023-10-31T16:53:18;14.60;99.90
54516;DHT22;40422;45.892;4.738;2023-10-31T16:55:43;14.50;99.90
54516;DHT22;40422;45.892;4.738;2023-10-31T16:58:09;14.40;99.90
54516;DHT22;40422;45.892;4.738;2023-10-31T17:00:36;14.30;99.90
54516;DHT22;40422;45.892;4.738;2023-10-31T17:03:02;14.10;99.90
54516;DHT22;40422;45.892;4.738;2023-10-31T17:05:27;14.00;99.90
54516;DHT22;40422;45.892;4.738;2023-10-31T17:07:53;14.00;99.90
54516;DHT22;40422;45.892;4.738;2023-10-31T17:10:19;13.80;99.90
54516;DHT22;40422;45.892;4.738;2023-10-31T17:12:44;13.80;99.90
54516;DHT22;40422;45.892;4.738;2023-10-31T17:15:10;13.70;99.90
54516;DHT22;40422;45.892;4.738;2023-10-31T17:17:36;13.60;99.90
54516;DHT22;40422;45.892;4.738;2023-10-31T17:20:01;13.50;99.90
54516;DHT22;40422;45.892;4.738;2023-10-31T17:22:27;13.40;99.90
54516;DHT22;40422;45.892;4.738;2023-10-31T17:24:53;13.40;99.90
54516;DHT22;40422;45.892;4.738;2023-10-31T17:27:19;13.30;99.90
54516;DHT22;40422;45.892;4.738;2023-10-31T17:29:45;13.10;99.90
54516;DHT22;40422;45.892;4.738;2023-10-31T17:32:11;13.10;99.90
54516;DHT22;40422;45.892;4.738;2023-10-31T17:34:36;13.00;99.90
54516;DHT22;40422;45.892;4.738;2023-10-31T17:37:02;13.00;99.90
54516;DHT22;40422;45.892;4.738;2023-10-31T17:39:28;13.00;99.90
54516;DHT22;40422;45.892;4.738;2023-10-31T17:41:53;13.00;99.90
54516;DHT22;40422;45.892;4.738;2023-10-31T17:44:19;12.90;99.90
54516;DHT22;40422;45.892;4.738;2023-10-31T17:46:45;12.90;99.90
54516;DHT22;40422;45.892;4.738;2023-10-31T17:49:10;12.90;99.90
54516;DHT22;40422;45.892;4.738;2023-10-31T17:51:40;12.90;99.90
54516;DHT22;40422;45.892;4.738;2023-10-31T17:54:07;12.90;99.90
54516;DHT22;40422;45.892;4.738;2023-10-31T17:56:32;12.90;99.90
54516;DHT22;40422;45.892;4.738;2023-10-31T17:58:58;12.90;99.90
54516;DHT22;40422;45.892;4.738;2023-10-31T18:01:24;12.90;99.90
54516;DHT22;40422;45.892;4.738;2023-10-31T18:03:49;13.00;99.90
54516;DHT22;40422;45.892;4.738;2023-10-31T18:06:16;13.10;99.90
54516;DHT22;40422;45.892;4.738;2023-10-31T18:08:42;13.20;99.90
54516;DHT22;40422;45.892;4.738;2023-10-31T18:11:08;13.40;99.90
54516;DHT22;40422;45.892;4.738;2023-10-31T18:13:34;13.50;99.90
54516;DHT22;40422;45.892;4.738;2023-10-31T18:16:00;13.60;99.90
54516;DHT22;40422;45.892;4.738;2023-10-31T18:18:25;13.70;99.90
54516;DHT22;40422;45.892;4.738;2023-10-31T18:20:51;13.80;99.90
54516;DHT22;40422;45.892;4.738;2023-10-31T18:23:18;13.80;99.90
54516;DHT22;40422;45.892;4.738;2023-10-31T18:25:44;13.90;99.90
54516;DHT22;40422;45.892;4.738;2023-10-31T18:28:10;14.00;99.90
54516;DHT22;40422;45.892;4.738;2023-10-31T18:30:35;14.00;99.90
54516;DHT22;40422;45.892;4.738;2023-10-31T18:33:01;13.90;99.90
54516;DHT22;40422;45.892;4.738;2023-10-31T18:35:29;13.90;99.90
54516;DHT22;40422;45.892;4.738;2023-10-31T18:37:55;13.90;99.90
54516;DHT22;40422;45.892;4.738;2023-10-31T18:40:21;13.80;99.90
54516;DHT22;40422;45.892;4.738;2023-10-31T18:42:47;13.80;99.90
54516;DHT22;40422;45.892;4.738;2023-10-31T18:45:12;13.60;99.90
54516;DHT22;40422;45.892;4.738;2023-10-31T18:47:40;13.60;99.90
54516;DHT22;40422;45.892;4.738;2023-10-31T18:50:07;13.60;99.90
54516;DHT22;40422;45.892;4.738;2023-10-31T18:52:33;13.50;99.90
54516;DHT22;40422;45.892;4.738;2023-10-31T18:54:58;13.50;99.90
54516;DHT22;40422;45.892;4.738;2023-10-31T18:57:27;13.40;99.90
54516;DHT22;40422;45.892;4.738;2023-10-31T18:59:56;13.40;99.90
54516;DHT22;40422;45.892;4.738;2023-10-31T19:02:29;13.30;99.90
54516;DHT22;40422;45.892;4.738;2023-10-31T19:04:54;13.30;99.90
54516;DHT22;40422;45.892;4.738;2023-10-31T19:07:20;13.20;99.90
54516;DHT22;40422;45.892;4.738;2023-10-31T19:09:46;13.20;99.90
54516;DHT22;40422;45.892;4.738;2023-10-31T19:12:12;13.10;99.90
54516;DHT22;40422;45.892;4.738;2023-10-31T19:14:37;13.10;99.90
54516;DHT22;40422;45.892;4.738;2023-10-31T19:17:03;13.10;99.90
54516;DHT22;40422;45.892;4.738;2023-10-31T19:19:29;13.00;99.90
54516;DHT22;40422;45.892;4.738;2023-10-31T19:21:54;13.00;99.90
54516;DHT22;40422;45.892;4.738;2023-10-31T19:24:20;12.90;99.90
54516;DHT22;40422;45.892;4.738;2023-10-31T19:26:45;12.90;99.90
54516;DHT22;40422;45.892;4.738;2023-10-31T19:29:11;12.80;99.90
54516;DHT22;40422;45.892;4.738;2023-10-31T19:31:37;12.80;99.90
54516;DHT22;40422;45.892;4.738;2023-10-31T19:34:03;12.70;99.90